CW8262 Weather Reports


Display with metric or nautical units.
time (UTC)temp
F
wind
direction
speed
MPH
gust
MPH
rain 1hr
in
rain 24hr
in
rain mn
in
humidity
%
barometer
mb
20180624165205 49 338 5.0 5.0 0.06 0.63 0.29 99 1012.9
20180624164204 49 0 6.0 7.0 0.06 0.63 0.29 99 1013.3
20180624163704 49 0 6.0 8.0 0.06 0.63 0.29 99 1013.3
20180624163205 49 338 6.0 8.0 0.06 0.63 0.29 99 1013.3
20180624162204 49 292 7.0 8.0 0.05 0.62 0.28 99 1013.3
20180624161705 49 315 7.0 7.0 0.05 0.62 0.28 99 1013.3
20180624161205 49 315 7.0 8.0 0.05 0.62 0.28 99 1013.3
20180624160704 49 1 7.0 10.0 0.04 0.60 0.27 99 1013.3
20180624160205 49 22 7.0 10.0 0.04 0.60 0.27 99 1013.3
20180624155704 49 0 6.0 7.0 0.00 0.56 0.23 99 1013.3
20180624155204 49 0 6.0 9.0 0.00 0.56 0.23 99 1013.3
20180624154704 49 21 5.0 9.0 0.00 0.56 0.23 99 1013.3
20180624154204 49 0 5.0 9.0 0.00 0.56 0.23 99 1013.5
20180624153704 49 0 5.0 6.0 0.00 0.56 0.23 99 1013.5
20180624153205 49 315 5.0 7.0 0.00 0.56 0.23 99 1013.5
20180624152705 49 0 5.0 7.0 0.01 0.56 0.23 99 1013.5
20180624152205 49 314 5.0 7.0 0.01 0.56 0.23 99 1013.8
20180624151704 49 338 4.0 7.0 0.01 0.56 0.23 99 1013.8
20180624151205 49 340 4.0 7.0 0.01 0.56 0.23 99 1013.8
20180624150704 49 338 3.0 5.0 0.01 0.56 0.23 99 1013.8
20180624150204 49 1 3.0 6.0 0.01 0.56 0.23 99 1014.1
20180624145704 49 22 3.0 6.0 0.01 0.56 0.23 99 1014.1
20180624145204 49 341 4.0 6.0 0.02 0.56 0.23 99 1014.1
20180624143704 49 338 3.0 7.0 0.08 0.56 0.23 99 1014.3
20180624142704 49 315 3.0 6.0 0.08 0.55 0.22 99 1014.3
20180624142205 49 320 3.0 6.0 0.09 0.55 0.22 99 1014.5
20180624141704 49 338 3.0 3.0 0.16 0.55 0.22 99 1014.5
20180624140704 49 22 3.0 6.0 0.18 0.55 0.22 99 1014.5
20180624140205 49 336 3.0 6.0 0.18 0.55 0.22 99 1014.8
20180624135704 49 338 5.0 6.0 0.18 0.55 0.22 99 1014.8
20180624135204 49 340 5.0 6.0 0.17 0.54 0.21 99 1014.8
20180624134704 49 338 5.0 5.0 0.15 0.52 0.18 99 1014.8
20180624134205 49 340 5.0 7.0 0.14 0.51 0.17 99 1014.9
20180624133704 49 338 5.0 7.0 0.12 0.49 0.15 99 1014.9
20180624133204 49 338 5.0 7.0 0.13 0.49 0.15 99 1014.9
20180624132704 49 338 5.0 6.0 0.12 0.48 0.14 99 1014.9
20180624132205 49 295 5.0 6.0 0.12 0.47 0.13 99 1015.2
20180624131704 49 292 5.0 6.0 0.04 0.40 0.05 99 1015.2
20180624131204 49 338 5.0 6.0 0.03 0.39 0.04 99 1015.2
20180624130704 49 315 5.0 7.0 0.02 0.38 0.03 99 1015.2
20180624130204 49 335 6.0 8.0 0.03 0.38 0.03 99 1015.4
20180624125201 49 317 6.0 8.0 0.08 0.38 0.03 99 1015.4
20180624123701 50 0 6.0 8.0 0.11 0.38 0.03 99 1015.6
20180624122702 50 0 5.0 9.0 0.11 0.37 0.02 99 1015.6
20180624121701 50 315 5.0 7.0 0.10 0.36 0.01 99 1015.8
20180624121202 50 315 6.0 7.0 0.10 0.36 0.01 99 1015.8
20180624115702 50 0 7.0 8.0 0.08 0.33 0.33 99 1015.7
20180624115201 50 321 7.0 12.0 0.06 0.32 0.32 99 1015.7
20180624114701 50 315 8.0 9.0 0.03 0.29 0.29 99 1015.7
20180624114201 50 334 8.0 12.0 0.03 0.29 0.29 99 1015.7
20180624113201 50 15 8.0 9.0 0.01 0.26 0.26 99 1015.7
20180624112202 50 338 8.0 14.0 0.04 0.26 0.26 99 1015.8
20180624111702 50 315 8.0 14.0 0.05 0.26 0.26 99 1015.8
20180624111201 50 22 8.0 13.0 0.05 0.26 0.26 99 1015.8
20180624110702 50 22 8.0 10.0 0.05 0.26 0.26 99 1015.8
20180624110201 50 351 8.0 9.0 0.05 0.26 0.26 99 1015.6
20180624105701 50 338 7.0 12.0 0.06 0.26 0.26 99 1015.6
20180624104701 50 0 6.0 6.0 0.06 0.26 0.26 99 1015.6
20180624104201 50 320 6.0 8.0 0.06 0.26 0.26 99 1015.8
20180624103701 50 338 6.0 8.0 0.05 0.25 0.25 99 1015.9
20180624102701 50 338 7.0 10.0 0.03 0.23 0.23 99 1015.9
20180624101702 50 22 7.0 10.0 0.02 0.21 0.21 99 1015.9
20180624101201 50 354 7.0 8.0 0.02 0.21 0.21 99 1015.9
20180624100201 50 343 7.0 9.0 0.06 0.21 0.21 99 1015.8
20180624095702 50 338 7.0 9.0 0.06 0.19 0.19 99 1015.8
20180624095201 50 16 7.0 8.0 0.08 0.19 0.19 99 1015.8
20180624094701 50 0 7.0 8.0 0.08 0.19 0.19 99 1015.8
20180624094201 50 349 7.0 12.0 0.08 0.19 0.19 99 1016.2
20180624092701 50 0 7.0 10.0 0.08 0.19 0.19 99 1016.2
20180624092202 50 0 7.0 12.0 0.08 0.19 0.19 99 1016.4
20180624090701 51 14 7.0 9.0 0.05 0.17 0.17 99 1016.4
20180624085701 51 346 8.0 10.0 0.01 0.13 0.13 99 1016.3
20180624084702 51 315 9.0 12.0 0.00 0.12 0.12 99 1016.3
20180624084201 51 315 9.0 12.0 0.00 0.12 0.12 99 1016.1
20180624083701 51 323 9.0 13.0 0.00 0.12 0.12 99 1016.1
20180624082701 51 353 9.0 12.0 0.00 0.12 0.12 99 1016.1
20180624081701 51 338 9.0 12.0 0.00 0.12 0.12 99 1016.3
20180624081202 51 315 9.0 12.0 0.00 0.12 0.12 99 1016.3
20180624080201 51 338 8.0 10.0 0.00 0.12 0.12 99 1016.6
20180624075702 51 322 7.0 12.0 0.00 0.12 0.12 99 1016.6
20180624075202 51 315 8.0 12.0 0.00 0.12 0.12 99 1016.6
20180624074701 51 346 8.0 13.0 0.00 0.12 0.12 99 1016.6
20180624074202 51 315 8.0 13.0 0.00 0.12 0.12 99 1016.7
20180624073702 51 338 8.0 9.0 0.00 0.12 0.12 99 1016.7
20180624072702 51 331 9.0 10.0 0.00 0.12 0.12 99 1016.7
20180624071701 51 338 8.0 10.0 0.00 0.12 0.12 99 1016.8
20180624071203 51 315 8.0 9.0 0.00 0.12 0.12 99 1016.8
20180624070702 51 338 8.0 9.0 0.00 0.12 0.12 99 1016.8
20180624070202 51 22 9.0 9.0 0.00 0.12 0.12 99 1016.8
20180624065702 51 354 9.0 14.0 0.02 0.12 0.12 99 1016.8
20180624065201 51 315 9.0 12.0 0.02 0.12 0.12 99 1016.8
20180624064702 51 321 10.0 16.0 0.03 0.12 0.12 99 1016.8
20180624064201 51 338 10.0 16.0 0.03 0.12 0.12 99 1017.0
20180624063201 51 292 9.0 12.0 0.03 0.12 0.12 99 1017.0
20180624062702 51 315 8.0 10.0 0.03 0.12 0.12 99 1017.0
20180624062202 51 315 8.0 9.0 0.03 0.12 0.12 99 1017.3
20180624061701 51 320 7.0 8.0 0.03 0.12 0.12 99 1017.3
20180624060701 51 315 7.0 9.0 0.03 0.12 0.12 99 1017.3
20180624060201 51 338 7.0 9.0 0.03 0.12 0.12 99 1017.5
20180624055702 51 315 7.0 9.0 0.01 0.10 0.10 99 1017.5
20180624055201 51 315 7.0 8.0 0.01 0.10 0.10 99 1017.5
20180624054201 51 338 6.0 8.0 0.00 0.09 0.09 99 1017.5
20180624053201 51 315 6.0 8.0 0.00 0.09 0.09 26 1017.5
20180624052701 51 334 6.0 9.0 0.00 0.09 0.09 1 1017.5
20180624052202 51 0 6.0 7.0 0.00 0.09 0.09 1 1017.3
20180624051702 51 315 5.0 7.0 0.00 0.09 0.09 2 1017.3
20180624050701 51 315 6.0 7.0 0.02 0.09 0.09 7 1017.3
20180624050202 51 315 7.0 8.0 0.06 0.09 0.09 7 1017.3
20180624045702 51 334 7.0 8.0 0.06 0.09 0.09 8 1017.3
20180624045201 51 315 8.0 8.0 0.06 0.09 0.09 11 1017.3
20180624044701 51 315 8.0 10.0 0.06 0.09 0.09 13 1017.3
20180624044201 52 292 8.0 10.0 0.06 0.09 0.09 15 1017.3
20180624043702 52 315 9.0 12.0 0.06 0.09 0.09 15 1017.3
20180624043202 52 315 9.0 12.0 0.06 0.09 0.09 15 1017.3
20180624042701 52 295 9.0 15.0 0.06 0.09 0.09 16 1017.3
20180624042201 52 292 8.0 9.0 0.06 0.09 0.09 18 1017.0
20180624041702 52 295 7.0 10.0 0.06 0.09 0.09 20 1017.0
20180624041201 53 315 6.0 9.0 0.06 0.09 0.09 24 1017.0
20180624040702 53 310 6.0 7.0 0.04 0.06 0.06 28 1017.0
20180624040201 53 315 7.0 8.0 0.00 0.02 0.02 38 1017.2
20180624035202 53 315 8.0 8.0 0.00 0.02 0.02 39 1017.2
20180624034702 53 315 7.0 10.0 0.00 0.02 0.02 39 1017.2
20180624034201 54 338 8.0 10.0 0.00 0.02 0.02 40 1017.2
20180624033701 54 355 9.0 10.0 0.00 0.02 0.02 41 1017.2
20180624032201 55 315 9.0 10.0 0.00 0.02 0.02 23 1017.3
20180624031202 55 315 7.0 13.0 0.00 0.02 0.02 2 1017.3
20180624030701 55 338 7.0 8.0 0.00 0.02 0.02 99 1017.3
20180624030202 55 315 8.0 9.0 0.00 0.02 0.02 99 1017.3
20180624025201 54 315 7.0 9.0 0.00 0.02 0.02 99 1017.3
20180624024701 54 1 6.0 9.0 0.00 0.02 0.02 99 1017.3
20180624024202 53 315 5.0 9.0 0.00 0.02 0.02 99 1017.4
20180624023701 53 314 5.0 6.0 0.00 0.02 0.02 99 1017.4
20180624023202 53 22 5.0 7.0 0.00 0.02 0.02 99 1017.4
20180624022702 53 338 5.0 7.0 0.00 0.02 0.02 99 1017.4
20180624022202 53 338 5.0 7.0 0.01 0.02 0.02 99 1017.3
20180624021702 52 339 5.0 7.0 0.01 0.02 0.02 99 1017.3
20180624020202 52 338 6.0 9.0 0.01 0.02 0.02 99 1017.3
20180624015701 51 1 5.0 6.0 0.01 0.02 0.02 99 1017.3
20180624014202 51 315 5.0 7.0 0.01 0.02 0.02 99 1017.4
20180624013701 51 338 4.0 7.0 0.01 0.02 0.02 99 1017.4
20180624013201 51 315 5.0 7.0 0.01 0.02 0.02 99 1017.4
20180624012701 50 357 5.0 7.0 0.01 0.02 0.02 99 1017.4
20180624012202 50 338 5.0 5.0 0.00 0.01 0.01 99 1017.6
20180624011701 50 0 3.0 5.0 0.00 0.01 0.01 99 1017.6
20180624010701 50 351 3.0 5.0 0.00 0.01 0.01 99 1017.6
20180624010201 50 338 5.0 6.0 0.00 0.01 0.01 99 1018.1
20180624004702 50 333 6.0 8.0 0.00 0.01 0.01 99 1018.1
20180624004201 49 315 6.0 8.0 0.00 0.01 0.01 99 1018.2
20180624003702 50 0 6.0 8.0 0.00 0.01 0.01 99 1018.2
20180624003202 49 338 5.0 7.0 0.00 0.01 0.01 99 1018.2
20180624002701 50 274 5.0 7.0 0.00 0.01 0.01 99 1018.2
20180624000702 49 2 5.0 8.0 0.00 0.01 0.01 99 1018.8
20180623235702 49 337 5.0 7.0 0.00 0.01 0.01 99 1018.8
20180623235202 49 270 5.0 7.0 0.00 0.01 0.01 99 1018.8
20180623234702 49 315 5.0 6.0 0.00 0.01 0.01 99 1018.8
20180623233701 49 315 6.0 7.0 0.00 0.01 0.01 99 1019.4
20180623233202 49 338 6.0 7.0 0.00 0.01 0.01 99 1019.4
20180623232202 49 338 5.0 6.0 0.00 0.01 0.01 99 1019.5
20180623230701 48 315 5.0 7.0 0.00 0.01 0.01 99 1019.5
20180623230202 48 22 5.0 7.0 0.00 0.01 0.01 99 1019.7
20180623225701 48 0 5.0 7.0 0.00 0.01 0.01 99 1019.7
20180623225201 48 315 5.0 7.0 0.00 0.01 0.01 99 1019.7
20180623224702 48 338 5.0 8.0 0.00 0.01 0.01 99 1019.7
20180623223702 48 0 5.0 7.0 0.00 0.01 0.01 99 1019.7
20180623222701 47 315 6.0 6.0 0.00 0.01 0.01 99 1019.7
20180623220701 47 315 5.0 7.0 0.00 0.01 0.01 99 1019.8
20180623220201 47 315 5.0 7.0 0.00 0.01 0.01 99 1019.6
20180623215702 47 315 6.0 5.0 0.00 0.01 0.01 99 1019.6
20180623215202 47 315 6.0 7.0 0.00 0.01 0.01 99 1019.6
20180623214702 47 338 6.0 7.0 0.00 0.01 0.01 99 1019.6
20180623214202 47 359 6.0 8.0 0.00 0.01 0.01 99 1019.5
20180623213702 47 315 6.0 9.0 0.00 0.01 0.01 99 1019.5
20180623212201 46 336 6.0 7.0 0.00 0.01 0.01 99 1019.3
20180623211702 46 315 5.0 7.0 0.00 0.01 0.01 99 1019.3
20180623211201 46 318 5.0 6.0 0.00 0.01 0.01 99 1019.3
20180623210701 46 338 5.0 9.0 0.00 0.01 0.01 99 1019.3
20180623205702 46 315 5.0 7.0 0.00 0.01 0.01 99 1019.3
20180623205201 46 317 5.0 7.0 0.00 0.01 0.01 99 1019.3
20180623204202 46 20 3.0 6.0 0.00 0.01 0.01 99 1019.4
20180623203702 46 338 3.0 6.0 0.00 0.01 0.01 99 1019.4
20180623203201 46 336 5.0 6.0 0.00 0.01 0.01 99 1019.4
20180623202702 46 338 5.0 5.0 0.00 0.01 0.01 99 1019.4
20180623202202 46 335 3.0 6.0 0.00 0.01 0.01 99 1019.4
20180623201702 46 338 3.0 5.0 0.00 0.01 0.01 99 1019.4
20180623201201 46 343 3.0 5.0 0.00 0.01 0.01 99 1019.4
20180623200202 46 315 3.0 5.0 0.00 0.01 0.01 99 1019.3
20180623195701 46 248 2.0 5.0 0.00 0.01 0.01 99 1019.3
20180623195201 46 338 2.0 5.0 0.00 0.01 0.01 99 1019.3
20180623193702 46 1 2.0 3.0 0.00 0.01 0.01 99 1019.3
20180623193202 46 0 2.0 3.0 0.00 0.01 0.01 99 1019.3
20180623192202 46 0 2.0 3.0 0.00 0.01 0.01 99 1019.8
20180623191201 46 22 2.0 3.0 0.00 0.01 0.01 99 1019.8
20180623190702 46 323 2.0 3.0 0.00 0.01 0.01 99 1019.8
20180623185701 46 338 1.0 2.0 0.00 0.01 0.01 99 1019.3
20180623185201 46 338 1.0 2.0 0.00 0.01 0.01 99 1019.3
20180623184202 46 315 1.0 1.0 0.00 0.01 0.01 99 1019.5
20180623183702 46 329 2.0 2.0 0.00 0.01 0.01 99 1019.5
20180623183202 46 315 2.0 2.0 0.00 0.01 0.01 99 1019.5
20180623182702 46 305 2.0 5.0 0.00 0.01 0.01 99 1019.5
20180623182202 46 315 2.0 3.0 0.00 0.01 0.01 99 1019.4
20180623181702 46 286 2.0 3.0 0.00 0.01 0.01 99 1019.4
20180623180201 46 315 2.0 3.0 0.00 0.01 0.01 99 1019.3
20180623175202 46 338 2.0 3.0 0.00 0.01 0.01 99 1019.3
20180623174702 46 354 2.0 5.0 0.00 0.01 0.01 99 1019.3
20180623174202 46 338 2.0 5.0 0.00 0.01 0.01 99 1019.4
20180623173702 46 355 2.0 5.0 0.00 0.01 0.01 99 1019.4
20180623173202 46 22 1.0 2.0 0.00 0.01 0.01 99 1019.4
20180623172702 46 5 1.0 2.0 0.00 0.01 0.01 99 1019.4
20180623172202 46 22 1.0 2.0 0.00 0.01 0.01 99 1019.3
20180623171702 46 27 1.0 2.0 0.00 0.01 0.01 99 1019.3
20180623170702 46 22 0.0 2.0 0.00 0.01 0.01 99 1019.3
20180623165701 46 16 1.0 2.0 0.00 0.01 0.01 99 1019.4